Aeroporto :







RITROVATECI SU...

 
LOGIN :

Iscrizione | Disclaimer

   EN    FR    IT 

 









Sommario :    VFR   VFR Marginale   IFR   IFR Intensivo   IFR Molto Intensivo
Visibilità : 
Base nubi : 
>= 8 km
>= 3000ft
5 / 8 km
1000 / 3000 ft
1500m / 5 km
500 / 1000 ft
800 / 1500m
200 / 500 ft
< 800m
< 200 ft
Simboli :   Temporali  Nebbia  Neve Forte  Precipitazioni Forti  Vento > 20 kt






- Altitudine del aeroporto : 118 ft
- Codice IATA : YUL


CYUL - Montréal - Pierre-Elliott-Trudeau Int.

ULTIMO METAR :
  • 241100Z 16007KT 15SM FEW060 02/M06 A2984 RMK SC1 SLP109

METARs OBSOLETI :
  • 241000Z 18008KT 15SM BKN060 04/M06 A2984 RMK SC7 SLP109
  • 240900Z 19010KT 15SM BKN070 04/M06 A2985 RMK AC7 SLP110

TAF TAF CYUL
Valido dal 24 a 12 ore il 25 a 12 ore UTC


241138Z 2412/2512 18008KT P6SM FEW060
FM241500 23010G20KT P6SM SCT030
FM241900 24010G20KT P6SM BKN030
FM250100 24007KT P6SM SCT030 BKN190
BECMG 2506/2508 VRB03KT
FM250900 02007KT P6SM SCT030 BKN130 RMK NXT FCST BY 241500Z
ATIS : ENG : +1 514-633-3037 FRA : +1 514-633-3034



MetMap, La meteo Aeronautica in un colpo d'occhio ! - Copyright ORBIFLY Dicembre 2007 - Disclaimer

ORBIFLY MET'MAP TEAM :

Programmazione e sviluppo : Alexandra Zaïnal
Concezione : Baudouin d'Aumeries
Aiuto per la programmazione : Marc-Olivier Méhu
Supporto tecnico e logistico : Manuel Goepfert
Aiuto per la traduzione : Arnaldo La Scala

Contatto : metmap@orbifly.com




FONTI E CREDITI :

   NOAA